createdAt,value
2022-10-19T09:17:17.333Z,4.30
2022-10-19T09:19:46.129Z,4.53
2022-10-19T09:22:20.979Z,4.32
2022-10-19T09:24:52.957Z,3.88
2022-10-19T09:27:23.559Z,4.45
2022-10-19T09:29:56.398Z,4.20
2022-10-19T09:32:30.960Z,5.03
2022-10-19T09:35:02.655Z,4.53
2022-10-19T09:37:32.744Z,4.32
2022-10-19T09:40:01.482Z,3.72
2022-10-19T09:42:33.872Z,4.50
2022-10-19T09:45:14.837Z,4.30
2022-10-19T09:47:49.480Z,4.32
2022-10-19T09:50:21.591Z,4.20
2022-10-19T09:52:51.570Z,3.58
2022-10-19T09:55:27.768Z,3.42
2022-10-19T09:58:06.174Z,3.05
2022-10-19T10:00:42.481Z,3.00
2022-10-19T10:03:25.686Z,3.40
2022-10-19T10:05:55.641Z,3.25
2022-10-19T10:08:27.276Z,2.85
2022-10-19T10:11:02.158Z,3.28
2022-10-19T10:13:30.847Z,3.50
2022-10-19T10:16:02.267Z,3.60
2022-10-19T10:18:32.478Z,3.60
2022-10-19T10:21:09.158Z,2.72
2022-10-19T10:23:38.296Z,3.10
2022-10-19T10:26:18.206Z,3.13
2022-10-19T10:28:51.421Z,3.25
2022-10-19T10:31:24.863Z,3.63
2022-10-19T10:34:10.929Z,2.67
2022-10-19T10:36:54.999Z,2.58
2022-10-19T10:39:25.175Z,3.03
2022-10-19T10:41:54.442Z,2.92
2022-10-19T10:44:26.649Z,2.88
2022-10-19T10:46:58.505Z,2.80
2022-10-19T10:49:30.921Z,2.63
2022-10-19T10:52:05.049Z,2.78
2022-10-19T10:54:34.610Z,2.40
2022-10-19T10:57:13.369Z,2.88
2022-10-19T10:59:49.559Z,2.85
2022-10-19T11:02:33.357Z,3.10
2022-10-19T11:05:07.502Z,3.00
2022-10-19T11:07:38.019Z,2.70
2022-10-19T11:10:14.569Z,2.97
2022-10-19T11:12:47.761Z,2.78
2022-10-19T11:15:22.495Z,3.17
2022-10-19T11:17:59.107Z,2.50
2022-10-19T11:20:32.278Z,3.00
2022-10-19T11:23:10.204Z,3.08
2022-10-19T11:25:50.437Z,3.13
2022-10-19T11:28:36.842Z,3.78
2022-10-19T11:31:15.923Z,3.42
2022-10-19T11:34:03.485Z,3.38
2022-10-19T11:36:48.199Z,4.15
2022-10-19T11:39:32.502Z,3.10
2022-10-19T11:42:07.959Z,3.58
2022-10-19T11:44:52.883Z,3.78
2022-10-19T11:47:43.386Z,3.37
2022-10-19T11:50:31.095Z,3.40
2022-10-19T11:53:10.843Z,3.65
2022-10-19T11:55:47.482Z,3.65
2022-10-19T11:58:34.870Z,3.92
2022-10-19T12:01:17.654Z,3.42
2022-10-19T12:04:05.240Z,4.18
2022-10-19T12:06:37.557Z,3.75
2022-10-19T12:09:36.814Z,3.53
2022-10-19T12:12:20.734Z,3.90
2022-10-19T12:14:54.335Z,3.78
2022-10-19T12:17:28.242Z,4.30
2022-10-19T12:20:01.535Z,3.72
2022-10-19T12:22:31.828Z,3.60
2022-10-19T12:25:03.426Z,3.80
2022-10-19T12:27:36.416Z,3.67
2022-10-19T12:30:11.254Z,3.92
2022-10-19T12:32:57.571Z,3.63
2022-10-19T12:35:45.325Z,3.38
2022-10-19T12:38:26.405Z,3.85
2022-10-19T12:41:05.639Z,3.53
2022-10-19T12:43:42.842Z,3.80
2022-10-19T12:46:21.958Z,3.90
2022-10-19T12:49:23.885Z,4.20
2022-10-19T12:51:56.639Z,3.75
2022-10-19T12:54:33.332Z,3.63
2022-10-19T12:57:05.537Z,3.60
2022-10-19T12:59:36.615Z,3.53
2022-10-19T13:02:08.082Z,3.70
2022-10-19T13:04:38.518Z,3.38
2022-10-19T13:07:09.357Z,4.18
2022-10-19T13:09:42.066Z,3.50
2022-10-19T13:12:50.935Z,3.55
2022-10-19T13:16:02.773Z,4.13
2022-10-19T13:19:08.541Z,3.50
2022-10-19T13:21:49.661Z,2.97
2022-10-19T13:24:35.920Z,3.97
2022-10-19T13:27:26.534Z,3.42
2022-10-19T13:29:57.246Z,3.88
2022-10-19T13:32:44.322Z,3.55
2022-10-19T13:35:28.050Z,3.72
2022-10-19T13:38:26.482Z,3.50
2022-10-19T13:41:03.690Z,3.63
2022-10-19T13:43:35.375Z,3.67
2022-10-19T13:46:27.140Z,3.40
2022-10-19T13:49:32.827Z,2.95
2022-10-19T13:52:38.718Z,5.00
2022-10-19T13:55:29.038Z,3.92
2022-10-19T13:58:19.278Z,3.55
2022-10-19T14:01:05.482Z,3.45
2022-10-19T14:03:55.455Z,3.38
2022-10-19T14:06:33.409Z,3.60
2022-10-19T14:09:43.689Z,3.92
2022-10-19T14:12:20.255Z,4.00
2022-10-19T14:14:49.086Z,3.58
2022-10-19T14:17:20.589Z,3.67
2022-10-19T14:19:52.761Z,3.58
2022-10-19T14:22:26.708Z,3.20
2022-10-19T14:25:02.898Z,3.75
2022-10-19T14:27:33.109Z,3.50
2022-10-19T14:30:02.638Z,2.95
2022-10-19T14:32:34.244Z,2.78
2022-10-19T14:35:08.020Z,2.47
2022-10-19T14:37:44.840Z,2.60
2022-10-19T14:40:28.959Z,2.78
2022-10-19T14:43:03.839Z,2.65
2022-10-19T14:45:33.737Z,2.83
2022-10-19T14:48:04.279Z,2.30
2022-10-19T14:50:43.677Z,2.63
2022-10-19T14:53:26.050Z,2.42
2022-10-19T14:55:59.690Z,2.80
2022-10-19T14:58:35.459Z,3.20
2022-10-19T15:01:04.484Z,2.80
2022-10-19T15:03:34.970Z,3.35
2022-10-19T15:06:08.077Z,3.72
2022-10-19T15:08:42.883Z,2.97
2022-10-19T15:11:28.403Z,3.08
2022-10-19T15:14:04.399Z,2.63
2022-10-19T15:16:44.469Z,3.35
2022-10-19T15:19:27.810Z,2.63
2022-10-19T15:22:15.933Z,2.30
2022-10-19T15:24:58.911Z,2.47
2022-10-19T15:27:33.216Z,2.78
2022-10-19T15:30:05.039Z,2.95
